Terminal Aerodrome Forecast
Issued by NWS Wakefield, VA

Home | Current Version | Previous Version | Text Only | Print | Product List | Glossary On
Versions: 1 2 3 4 5 6 7 8 9 10 11 12 13 14 15
000
FTUS41 KAKQ 021748
TAFRIC
TAF
KRIC 021748Z 0218/0318 26007KT 6SM -SHRA BR BKN025 OVC060
     FM022200 VRB05KT 4SM SHRA VCTS OVC025CB
      TEMPO 0222/0224 VRB15G25KT 2SM TSRA OVC015CB
     FM030600 06003KT 3SM -SHRA BR OVC009
     FM031300 09005KT 5SM BR OVC015=

USA.gov is the U.S. government's official web portal to all federal, state and local government web resources and services.